Richland, MT (59260)

4:08 AM MDT on September 20, 2014 (GMT -0600)
Wokal-Glasgow International | Change Station
CLOSE
Current Station
Airport
Location: Glasgow,
Elevation: 2293 ft
Nearby Weather Stations

Elev 2293 ft 48.21 °N, 106.62 °W | Updated 15 minutes ago

Clear
Clear
54 °F
Feels Like 54 °F
N
8
Wind Variable Wind from WNW

Today
High -- | Low -- °F
--% Chance of Precip.
Yesterday
High -- | Low -- °F
Precip. -- in
6:48 AM 7:07 PM
Waning Crescent, 13% visible
Pressure 29.89 in
Visibility 10.0 miles
Clouds Clear
Dew Point 46 °F
Humidity 75%
Rainfall 0.00 in
Snow Depth 0 in , 0 in , 0 in
UV 0 out of 12
Pollen 5.10 out of 12
Air Quality Not available.
Flu Activity Not available.
METAR KGGW 200953Z AUTO 29007KT 10SM CLR 12/08 A2990 RMK AO2 SLP121 T01220078

More Conditions Fewer Conditions

Pressure 29.89 in
Visibility 10.0 miles
Clouds Clear
Dew Point 46 °F
Humidity 75%
Rainfall 0.00 in
Snow Depth 0 in , 0 in , 0 in
UV 0 out of 12
Pollen 5.10 out of 12
Air Quality Not available.
Flu Activity Not available.
METAR KGGW 200953Z AUTO 29007KT 10SM CLR 12/08 A2990 RMK AO2 SLP121 T01220078

More Conditions Fewer Conditions

10-Day Weather Forecast

Almanac

Astronomy

Sep. 20, 2014 Rise Set
Actual Time 6:48 AM MDT 7:07 PM MDT
Civil Twilight 6:17 AM MDT 7:38 PM MDT
Nautical Twilight 5:40 AM MDT 8:15 PM MDT
Astronomical Twilight 5:01 AM MDT 8:54 PM MDT
Moon 3:17 AM MDT 5:22 PM MDT
Length of Visible Light 13h 21m
Length of Day
12h 18m
Tomorrow will be 3m 32s shorter.
Waning Crescent, 13% of the Moon is Illuminated
Today
Waning Crescent
Sep 24
New
Oct 1
First Quarter
Oct 8
Full
Oct 15
Last Quarter

Today's Extremes

State Highs State Lows

Community

WunderPhotos

Upload Photos

1,754,820 photos uploaded!

WunderBlogs® & News

Nearby

Snow Depth

Station Depth Elevation
South Fork Shields 0 in 8100 ft
Garver Creek 1 in 4250 ft
Lemhi Ridge 0 in 8100 ft
Beagle Springs 0 in 8850 ft
Nez Perce Camp 0 in 5650 ft

Earthquake Activity

City Distance Mag. Time & Date
No recent earthquake activity has been reported nearby.
Minimum magnitude displayed is 2.5.

Coastal Water Temperatures

Place Temperature
No Stations Reporting

Nearby Weather Stations